createdAt,value
2023-10-19T00:00:56.950Z,16.63
2023-10-19T00:03:25.595Z,17.17
2023-10-19T00:05:53.704Z,15.60
2023-10-19T00:08:22.527Z,16.93
2023-10-19T00:11:04.279Z,16.23
2023-10-19T00:13:31.669Z,16.47
2023-10-19T00:16:00.563Z,17.73
2023-10-19T00:18:28.289Z,16.67
2023-10-19T00:21:12.104Z,17.47
2023-10-19T00:23:41.076Z,16.90
2023-10-19T00:26:11.408Z,17.80
2023-10-19T00:28:42.112Z,18.37
2023-10-19T00:31:10.367Z,18.23
2023-10-19T00:33:40.254Z,17.93
2023-10-19T00:36:09.673Z,18.90
2023-10-19T00:38:48.630Z,18.30
2023-10-19T00:41:22.560Z,18.43
2023-10-19T00:43:53.055Z,20.17
2023-10-19T00:46:32.329Z,20.10
2023-10-19T00:49:03.071Z,19.40
2023-10-19T00:51:45.521Z,21.07
2023-10-19T00:54:23.021Z,20.10
2023-10-19T00:56:53.032Z,20.97
2023-10-19T00:59:24.498Z,20.07
2023-10-19T01:01:56.782Z,22.40
2023-10-19T01:04:26.410Z,20.83
2023-10-19T01:07:13.173Z,22.03
2023-10-19T01:09:45.099Z,21.63
2023-10-19T01:12:26.447Z,21.20
2023-10-19T01:15:10.642Z,22.30
2023-10-19T01:17:42.230Z,21.27
2023-10-19T01:20:19.240Z,20.70
2023-10-19T01:23:07.431Z,22.93
2023-10-19T01:25:47.335Z,22.90
2023-10-19T01:28:18.154Z,22.33
2023-10-19T01:30:46.909Z,22.20
2023-10-19T01:33:17.182Z,21.90
2023-10-19T01:36:03.082Z,22.57
2023-10-19T01:38:34.496Z,23.10
2023-10-19T01:41:02.485Z,23.47
2023-10-19T01:43:32.492Z,23.23
2023-10-19T01:46:05.118Z,24.90
2023-10-19T01:48:34.757Z,24.43
2023-10-19T01:51:05.957Z,24.10
2023-10-19T01:53:36.567Z,25.00
2023-10-19T01:56:06.576Z,26.10
2023-10-19T01:58:37.554Z,25.10
2023-10-19T02:01:14.531Z,24.33
2023-10-19T02:03:43.376Z,25.90
2023-10-19T02:06:17.898Z,25.10
2023-10-19T02:08:51.491Z,25.97
2023-10-19T02:11:23.032Z,25.80
2023-10-19T02:13:52.938Z,25.33
2023-10-19T02:16:23.171Z,26.30
2023-10-19T02:18:52.087Z,27.50
2023-10-19T02:21:23.087Z,26.03
2023-10-19T02:23:52.668Z,25.53
2023-10-19T02:26:21.179Z,26.77
2023-10-19T02:28:51.736Z,25.77
2023-10-19T02:31:21.870Z,24.83
2023-10-19T02:33:53.072Z,26.73
2023-10-19T02:36:21.522Z,27.73
2023-10-19T02:38:53.619Z,26.90
2023-10-19T02:41:22.199Z,27.17
2023-10-19T02:44:02.156Z,26.83
2023-10-19T02:46:30.975Z,27.70
2023-10-19T02:49:00.807Z,27.43
2023-10-19T02:51:28.876Z,26.83
2023-10-19T02:53:57.962Z,28.03
2023-10-19T02:56:28.199Z,27.17
2023-10-19T02:58:55.368Z,28.10
2023-10-19T03:01:23.748Z,29.40
2023-10-19T03:03:52.369Z,27.13
2023-10-19T03:06:22.285Z,28.33
2023-10-19T03:08:53.493Z,21.73
2023-10-19T03:11:21.580Z,29.93
2023-10-19T03:13:51.400Z,28.90
2023-10-19T03:16:21.736Z,31.30
2023-10-19T03:18:48.870Z,31.20
2023-10-19T03:21:17.714Z,31.13
2023-10-19T03:23:44.728Z,31.87
2023-10-19T03:26:28.968Z,30.00
2023-10-19T03:29:00.643Z,32.47
2023-10-19T03:31:28.835Z,31.33
2023-10-19T03:33:57.680Z,31.77
2023-10-19T03:36:26.722Z,33.73
2023-10-19T03:38:55.072Z,32.60
2023-10-19T03:41:28.083Z,24.13
2023-10-19T03:43:58.557Z,31.60
2023-10-19T03:46:31.927Z,31.70
2023-10-19T03:49:05.263Z,31.27
2023-10-19T03:51:41.594Z,30.33
2023-10-19T03:54:23.520Z,32.60
2023-10-19T03:56:52.583Z,31.40
2023-10-19T03:59:22.399Z,31.13
2023-10-19T04:01:51.958Z,33.00
2023-10-19T04:04:21.958Z,31.87
2023-10-19T04:06:50.769Z,33.00
2023-10-19T04:09:19.910Z,32.70
2023-10-19T04:11:50.907Z,32.47
2023-10-19T04:14:21.519Z,32.73
2023-10-19T04:16:51.143Z,33.40
2023-10-19T04:19:19.206Z,34.67
2023-10-19T04:21:48.566Z,34.70
2023-10-19T04:24:47.445Z,33.53
2023-10-19T04:27:15.822Z,33.97
2023-10-19T04:29:44.702Z,34.57
2023-10-19T04:32:15.637Z,34.17
2023-10-19T04:34:44.323Z,34.03
2023-10-19T04:37:13.750Z,32.97
2023-10-19T04:39:41.803Z,33.60
2023-10-19T04:42:10.448Z,35.53
2023-10-19T04:44:38.482Z,33.80
2023-10-19T04:47:06.730Z,32.57
2023-10-19T04:49:36.226Z,32.53
2023-10-19T04:52:04.525Z,32.53
2023-10-19T04:54:32.712Z,33.00
2023-10-19T04:57:01.576Z,33.77
2023-10-19T04:59:29.842Z,33.07
2023-10-19T05:02:00.287Z,31.17
2023-10-19T05:04:30.879Z,32.13
2023-10-19T05:07:02.439Z,32.00
2023-10-19T05:09:30.462Z,29.87
2023-10-19T05:11:58.669Z,30.90
2023-10-19T05:14:28.035Z,32.57
2023-10-19T05:16:56.252Z,29.17
2023-10-19T05:19:24.353Z,30.10
2023-10-19T05:21:53.186Z,31.03
2023-10-19T05:24:22.578Z,29.67
2023-10-19T05:26:50.906Z,30.47
2023-10-19T05:29:19.843Z,29.83
2023-10-19T05:31:48.379Z,28.80
2023-10-19T05:34:17.661Z,30.40
2023-10-19T05:36:47.291Z,30.27
2023-10-19T05:39:15.310Z,30.03
2023-10-19T05:41:44.777Z,31.47
2023-10-19T05:44:13.610Z,29.77
2023-10-19T05:46:42.720Z,29.17
2023-10-19T05:49:10.975Z,29.57
2023-10-19T05:51:39.217Z,28.73
2023-10-19T05:54:09.500Z,28.43
2023-10-19T05:56:37.729Z,26.53
2023-10-19T05:59:07.929Z,28.90
2023-10-19T06:01:36.263Z,25.63
2023-10-19T06:04:04.571Z,25.37
2023-10-19T06:06:32.589Z,23.30
2023-10-19T06:09:01.686Z,24.30
2023-10-19T06:11:33.458Z,23.67
2023-10-19T06:14:01.898Z,24.20
2023-10-19T06:16:31.418Z,24.47
2023-10-19T06:18:59.738Z,24.30
2023-10-19T06:21:27.910Z,25.43
2023-10-19T06:23:56.392Z,25.13
2023-10-19T06:26:24.488Z,22.47
2023-10-19T06:28:57.854Z,23.30
2023-10-19T06:31:26.234Z,23.37
2023-10-19T06:33:55.747Z,22.87
2023-10-19T06:36:23.933Z,22.83
2023-10-19T06:38:52.269Z,22.40
2023-10-19T06:41:20.459Z,20.80
2023-10-19T06:43:48.654Z,21.83
2023-10-19T06:46:16.769Z,21.23
2023-10-19T06:48:44.929Z,21.70
2023-10-19T06:51:14.552Z,20.33
2023-10-19T06:53:42.687Z,20.80
2023-10-19T06:56:12.154Z,19.77
2023-10-19T06:58:40.228Z,18.20
2023-10-19T07:01:10.385Z,17.70
2023-10-19T07:03:38.821Z,17.67
2023-10-19T07:06:12.282Z,20.23
2023-10-19T07:08:43.354Z,20.13
2023-10-19T07:11:12.046Z,18.30
2023-10-19T07:13:41.065Z,20.60
2023-10-19T07:16:13.045Z,19.60
2023-10-19T07:18:41.397Z,19.50
2023-10-19T07:21:10.682Z,20.30
2023-10-19T07:23:39.870Z,20.93
2023-10-19T07:26:09.774Z,21.27
2023-10-19T07:28:40.662Z,20.80
2023-10-19T07:31:13.799Z,20.23
2023-10-19T07:33:46.581Z,21.70
2023-10-19T07:36:16.003Z,21.03
2023-10-19T07:38:45.229Z,21.83
2023-10-19T07:41:14.669Z,20.57
2023-10-19T07:43:42.699Z,19.70
2023-10-19T07:46:10.791Z,20.87
2023-10-19T07:48:39.414Z,19.67
2023-10-19T07:51:07.516Z,20.50
2023-10-19T07:53:36.961Z,20.37
2023-10-19T07:56:05.312Z,20.67
2023-10-19T07:58:35.512Z,19.23
2023-10-19T08:01:03.905Z,18.33
2023-10-19T08:03:32.146Z,17.97
2023-10-19T08:06:00.232Z,17.33
2023-10-19T08:08:35.056Z,17.60
2023-10-19T08:11:03.735Z,17.80
2023-10-19T08:13:33.376Z,16.83
2023-10-19T08:16:02.899Z,16.60
2023-10-19T08:18:32.250Z,16.60
2023-10-19T08:21:00.309Z,16.63
2023-10-19T08:23:28.892Z,16.00
2023-10-19T08:25:57.790Z,16.20
2023-10-19T08:28:26.557Z,15.60
2023-10-19T08:31:01.673Z,16.70
2023-10-19T08:33:34.865Z,19.00
2023-10-19T08:36:03.263Z,15.03
2023-10-19T08:38:31.398Z,15.93
2023-10-19T08:40:59.780Z,15.40
2023-10-19T08:43:29.431Z,15.37
2023-10-19T08:45:58.230Z,15.40
2023-10-19T08:48:27.061Z,14.30
2023-10-19T08:50:57.089Z,14.57
2023-10-19T08:53:26.754Z,14.47
2023-10-19T08:55:56.779Z,14.70
2023-10-19T08:58:25.677Z,13.87
2023-10-19T09:00:56.750Z,14.00
2023-10-19T09:03:27.903Z,13.17
2023-10-19T09:05:58.267Z,12.90
2023-10-19T09:08:26.469Z,12.97
2023-10-19T09:10:56.058Z,12.10
2023-10-19T09:13:26.386Z,13.57
2023-10-19T09:15:56.739Z,13.23
2023-10-19T09:18:28.958Z,11.97
2023-10-19T09:21:08.201Z,11.90
2023-10-19T09:23:38.089Z,12.10
2023-10-19T09:26:08.492Z,10.93
2023-10-19T09:28:38.816Z,11.10
2023-10-19T09:31:10.862Z,11.10
2023-10-19T09:33:44.780Z,11.40
2023-10-19T09:36:15.618Z,12.13
2023-10-19T09:38:49.971Z,10.37
2023-10-19T09:41:19.708Z,10.43
2023-10-19T09:43:49.423Z,10.60
2023-10-19T09:46:23.815Z,10.20
2023-10-19T09:48:53.091Z,10.47
2023-10-19T09:51:23.430Z,10.27
2023-10-19T09:53:58.487Z,9.53
2023-10-19T09:56:32.199Z,9.30
2023-10-19T09:59:07.247Z,9.17
2023-10-19T10:02:09.454Z,9.57
2023-10-19T10:04:37.872Z,10.27
2023-10-19T10:07:09.048Z,10.00
2023-10-19T10:09:40.995Z,8.40
2023-10-19T10:12:23.218Z,9.53
2023-10-19T10:15:03.075Z,8.20
2023-10-19T10:17:34.990Z,8.67
2023-10-19T10:20:32.045Z,8.17
2023-10-19T10:23:33.786Z,8.43
2023-10-19T10:26:02.309Z,7.53
2023-10-19T10:28:30.426Z,8.23
2023-10-19T10:31:16.806Z,8.00
2023-10-19T10:33:49.308Z,7.80
2023-10-19T10:36:19.115Z,8.83
2023-10-19T10:38:49.564Z,9.03
2023-10-19T10:41:26.249Z,9.67
2023-10-19T10:43:56.119Z,7.60
2023-10-19T10:46:25.593Z,9.00
2023-10-19T10:48:54.197Z,8.70
2023-10-19T10:51:24.605Z,8.63
2023-10-19T10:53:55.101Z,8.30
2023-10-19T10:56:25.264Z,9.40
2023-10-19T10:58:53.382Z,8.60
2023-10-19T11:01:31.884Z,9.17
2023-10-19T11:04:10.143Z,7.50
2023-10-19T11:06:50.318Z,8.37
2023-10-19T11:09:20.748Z,8.90
2023-10-19T11:11:50.285Z,8.77
2023-10-19T11:14:18.396Z,9.33
2023-10-19T11:16:47.203Z,9.17
2023-10-19T11:19:15.409Z,8.53
2023-10-19T11:21:58.876Z,8.20
2023-10-19T11:24:34.820Z,9.37
2023-10-19T11:27:03.596Z,8.73
2023-10-19T11:29:31.891Z,8.70
2023-10-19T11:32:01.057Z,9.50
2023-10-19T11:34:30.406Z,9.30
2023-10-19T11:37:00.956Z,9.40
2023-10-19T11:39:30.918Z,9.77
2023-10-19T11:41:59.458Z,9.47
2023-10-19T11:44:27.528Z,9.10
2023-10-19T11:46:55.698Z,10.10
2023-10-19T11:49:26.832Z,9.60
2023-10-19T11:51:55.589Z,11.30
2023-10-19T11:54:23.660Z,9.80
2023-10-19T11:56:54.218Z,9.70
2023-10-19T11:59:22.314Z,10.40
2023-10-19T12:01:50.518Z,10.90
2023-10-19T12:04:19.143Z,10.27
2023-10-19T12:06:47.481Z,11.80
2023-10-19T12:09:16.948Z,11.00
2023-10-19T12:11:47.869Z,10.60
2023-10-19T12:14:18.383Z,11.57
2023-10-19T12:16:47.517Z,11.63
2023-10-19T12:19:18.168Z,12.10
2023-10-19T12:21:46.660Z,12.10
2023-10-19T12:24:16.315Z,13.40
2023-10-19T12:26:44.421Z,12.63
2023-10-19T12:29:12.676Z,13.20
2023-10-19T12:31:42.545Z,10.27
2023-10-19T12:34:12.870Z,13.37
2023-10-19T12:36:42.373Z,12.80
2023-10-19T12:39:16.763Z,14.07
2023-10-19T12:41:44.775Z,14.83
2023-10-19T12:44:13.490Z,13.77
2023-10-19T12:46:43.123Z,13.40
2023-10-19T12:49:15.370Z,14.27
2023-10-19T12:51:45.360Z,14.10
2023-10-19T12:54:14.891Z,14.00
2023-10-19T12:56:43.174Z,13.73
2023-10-19T12:59:11.446Z,15.00
2023-10-19T13:01:41.118Z,15.93
2023-10-19T13:04:17.789Z,16.00
2023-10-19T13:06:48.399Z,15.27
2023-10-19T13:09:22.832Z,16.17
2023-10-19T13:11:53.134Z,16.33
2023-10-19T13:14:21.363Z,15.13
2023-10-19T13:16:51.364Z,15.40
2023-10-19T13:19:25.266Z,15.50
2023-10-19T13:21:53.597Z,14.50
2023-10-19T13:24:22.987Z,15.03
2023-10-19T13:26:52.198Z,15.77
2023-10-19T13:29:21.553Z,14.47
2023-10-19T13:31:52.000Z,14.40
2023-10-19T13:34:22.128Z,15.10
2023-10-19T13:36:52.562Z,13.77
2023-10-19T13:39:20.861Z,15.40
2023-10-19T13:41:49.771Z,14.47
2023-10-19T13:44:20.079Z,14.37
2023-10-19T13:46:48.305Z,15.50
2023-10-19T13:49:19.916Z,16.00
2023-10-19T13:51:49.306Z,16.00
2023-10-19T13:54:17.327Z,16.33
2023-10-19T13:56:45.353Z,16.67
2023-10-19T13:59:13.783Z,17.50
2023-10-19T14:01:42.043Z,16.30
2023-10-19T14:04:10.232Z,16.30
2023-10-19T14:06:38.364Z,15.27
2023-10-19T14:09:07.779Z,15.60
2023-10-19T14:11:35.797Z,16.03
2023-10-19T14:14:03.876Z,15.13
2023-10-19T14:16:32.181Z,15.93
2023-10-19T14:19:00.352Z,15.40
2023-10-19T14:21:29.189Z,16.03
2023-10-19T14:23:57.884Z,16.70
2023-10-19T14:26:27.404Z,16.00
2023-10-19T14:28:55.856Z,15.50
2023-10-19T14:31:23.980Z,16.20
2023-10-19T14:33:52.008Z,15.47
2023-10-19T14:36:20.312Z,15.87
2023-10-19T14:38:48.499Z,17.27
2023-10-19T14:41:16.605Z,16.87
2023-10-19T14:43:46.190Z,18.03
2023-10-19T14:46:14.339Z,16.83
2023-10-19T14:48:42.395Z,18.07
2023-10-19T14:51:10.570Z,18.07
2023-10-19T14:53:39.044Z,18.73
2023-10-19T14:56:09.136Z,17.00
2023-10-19T14:58:38.007Z,18.03
2023-10-19T15:01:16.048Z,16.73
2023-10-19T15:03:44.179Z,22.07
2023-10-19T15:06:12.298Z,25.10
2023-10-19T15:08:40.325Z,20.30
2023-10-19T15:11:08.875Z,20.13
2023-10-19T15:13:37.899Z,19.07
2023-10-19T15:16:13.543Z,20.37
2023-10-19T15:18:41.756Z,21.23
2023-10-19T15:21:09.983Z,23.97
2023-10-19T15:23:38.265Z,20.67
2023-10-19T15:26:06.534Z,19.90
2023-10-19T15:28:35.626Z,21.20
2023-10-19T15:31:03.749Z,21.47
2023-10-19T15:33:33.487Z,21.77
2023-10-19T15:36:01.758Z,21.77
2023-10-19T15:38:30.176Z,23.37
2023-10-19T15:40:58.284Z,21.30
2023-10-19T15:43:26.578Z,22.20
2023-10-19T15:46:01.479Z,23.03
2023-10-19T15:48:29.604Z,22.23
2023-10-19T15:50:59.046Z,22.07
2023-10-19T15:53:27.441Z,21.90
2023-10-19T15:55:55.705Z,22.87
2023-10-19T15:58:23.903Z,21.03
2023-10-19T16:00:51.993Z,21.20
2023-10-19T16:03:20.151Z,24.10
2023-10-19T16:05:48.223Z,24.20
2023-10-19T16:08:17.692Z,22.37
2023-10-19T16:10:46.278Z,22.07
2023-10-19T16:13:14.348Z,21.93
2023-10-19T16:15:42.593Z,22.30
2023-10-19T16:18:10.821Z,21.90
2023-10-19T16:20:40.207Z,20.60
2023-10-19T16:23:08.819Z,23.10
2023-10-19T16:25:38.239Z,21.83
2023-10-19T16:28:06.722Z,24.10
2023-10-19T16:30:34.753Z,24.83
2023-10-19T16:33:03.869Z,22.60
2023-10-19T16:35:33.317Z,23.40
2023-10-19T16:38:01.396Z,23.40
2023-10-19T16:40:30.106Z,23.27
2023-10-19T16:42:59.719Z,23.10
2023-10-19T16:45:27.872Z,22.97
2023-10-19T16:47:55.935Z,24.00
2023-10-19T16:50:24.023Z,23.67
2023-10-19T16:52:53.009Z,22.57
2023-10-19T16:55:21.142Z,27.17
2023-10-19T16:57:49.516Z,23.20
2023-10-19T17:00:21.090Z,22.53
2023-10-19T17:02:49.434Z,22.20
2023-10-19T17:05:17.804Z,22.80
2023-10-19T17:07:45.893Z,20.63
2023-10-19T17:10:14.033Z,21.37
2023-10-19T17:12:42.369Z,21.77
2023-10-19T17:15:13.534Z,22.00
2023-10-19T17:17:44.659Z,21.77
2023-10-19T17:20:13.686Z,20.93
2023-10-19T17:22:41.892Z,21.57
2023-10-19T17:25:10.737Z,21.83
2023-10-19T17:27:39.094Z,21.50
2023-10-19T17:30:08.324Z,22.57
2023-10-19T17:32:36.642Z,20.53
2023-10-19T17:35:07.070Z,20.50
2023-10-19T17:37:35.258Z,20.97
2023-10-19T17:40:05.308Z,21.90
2023-10-19T17:42:33.709Z,21.20
2023-10-19T17:45:01.902Z,22.93
2023-10-19T17:47:30.151Z,23.03
2023-10-19T17:49:58.608Z,22.30
2023-10-19T17:52:28.634Z,25.13
2023-10-19T17:54:57.085Z,24.60
2023-10-19T17:57:26.316Z,27.50
2023-10-19T17:59:54.775Z,25.13
2023-10-19T18:02:23.149Z,25.03
2023-10-19T18:04:54.258Z,22.70
2023-10-19T18:07:22.971Z,23.37
2023-10-19T18:09:52.362Z,22.33
2023-10-19T18:12:20.545Z,26.30
2023-10-19T18:14:49.617Z,21.53
2023-10-19T18:17:19.459Z,22.83
2023-10-19T18:19:48.412Z,22.03
2023-10-19T18:22:16.672Z,25.07
2023-10-19T18:24:45.016Z,24.60
2023-10-19T18:27:14.382Z,24.30
2023-10-19T18:29:42.538Z,29.20
2023-10-19T18:32:10.614Z,23.37
2023-10-19T18:34:38.715Z,25.03
2023-10-19T18:37:08.065Z,24.97
2023-10-19T18:39:36.191Z,25.00
2023-10-19T18:42:10.245Z,28.53
2023-10-19T18:44:40.102Z,26.77
2023-10-19T18:47:08.412Z,25.93
2023-10-19T18:49:36.774Z,24.90
2023-10-19T18:52:08.262Z,27.00
2023-10-19T18:54:36.464Z,26.90
2023-10-19T18:57:04.670Z,25.93
2023-10-19T18:59:33.035Z,28.60
2023-10-19T19:02:02.647Z,28.23
2023-10-19T19:04:31.297Z,26.37
2023-10-19T19:06:59.391Z,25.93
2023-10-19T19:09:27.462Z,26.17
2023-10-19T19:11:57.049Z,28.00
2023-10-19T19:14:25.178Z,25.90
2023-10-19T19:16:53.389Z,25.60
2023-10-19T19:19:23.069Z,25.77
2023-10-19T19:21:51.555Z,26.90
2023-10-19T19:24:18.613Z,28.10
2023-10-19T19:26:46.654Z,28.40
2023-10-19T19:29:14.767Z,26.40
2023-10-19T19:31:42.914Z,28.43
2023-10-19T19:34:12.102Z,28.73
2023-10-19T19:36:41.499Z,28.00
2023-10-19T19:39:09.938Z,28.07
2023-10-19T19:41:38.081Z,27.70
2023-10-19T19:44:06.482Z,28.57
2023-10-19T19:46:35.137Z,28.10
2023-10-19T19:49:03.970Z,27.57
2023-10-19T19:51:34.258Z,26.33
2023-10-19T19:54:03.655Z,28.13
2023-10-19T19:56:32.368Z,28.50
2023-10-19T19:59:00.920Z,28.83
2023-10-19T20:01:29.076Z,28.00
2023-10-19T20:03:58.365Z,29.77
2023-10-19T20:06:26.496Z,28.10
2023-10-19T20:08:55.075Z,28.40
2023-10-19T20:11:24.656Z,27.30
2023-10-19T20:13:52.714Z,28.40
2023-10-19T20:16:20.903Z,27.90
2023-10-19T20:18:49.191Z,30.33
2023-10-19T20:21:18.837Z,28.70
2023-10-19T20:23:48.143Z,28.17
2023-10-19T20:26:17.044Z,30.17
2023-10-19T20:28:46.458Z,29.80
2023-10-19T20:31:14.494Z,27.50
2023-10-19T20:33:42.641Z,30.33
2023-10-19T20:36:10.833Z,29.40
2023-10-19T20:38:39.076Z,30.97
2023-10-19T20:41:07.084Z,29.70
2023-10-19T20:43:34.777Z,28.73
2023-10-19T20:46:06.453Z,29.07
2023-10-19T20:48:34.549Z,32.20
2023-10-19T20:51:06.405Z,28.83
2023-10-19T20:53:34.627Z,32.10
2023-10-19T20:56:02.756Z,30.73
2023-10-19T20:58:31.069Z,28.93
2023-10-19T21:00:59.125Z,27.33
2023-10-19T21:03:28.822Z,26.17
2023-10-19T21:05:57.017Z,25.00
2023-10-19T21:08:25.077Z,27.13
2023-10-19T21:10:53.308Z,26.10
2023-10-19T21:13:21.332Z,24.57
2023-10-19T21:15:49.435Z,24.47
2023-10-19T21:18:17.592Z,25.53
2023-10-19T21:20:47.011Z,24.10
2023-10-19T21:23:15.118Z,24.07
2023-10-19T21:25:43.413Z,24.03
2023-10-19T21:28:12.445Z,23.90
2023-10-19T21:30:40.471Z,24.00
2023-10-19T21:33:08.661Z,24.73
2023-10-19T21:35:40.263Z,22.93
2023-10-19T21:38:11.904Z,22.50
2023-10-19T21:40:42.712Z,24.63
2023-10-19T21:43:11.515Z,23.40
2023-10-19T21:45:40.645Z,23.90
2023-10-19T21:48:09.795Z,26.27
2023-10-19T21:50:38.037Z,24.43
2023-10-19T21:53:06.376Z,24.20
2023-10-19T21:55:36.345Z,24.30
2023-10-19T21:58:04.867Z,25.27
2023-10-19T22:00:34.809Z,23.53
2023-10-19T22:03:12.755Z,27.70
2023-10-19T22:05:42.310Z,28.53
2023-10-19T22:08:11.772Z,27.57
2023-10-19T22:10:41.778Z,28.87
2023-10-19T22:13:09.776Z,26.67
2023-10-19T22:15:38.430Z,28.00
2023-10-19T22:18:07.010Z,28.43
2023-10-19T22:20:36.241Z,29.33
2023-10-19T22:23:05.110Z,31.83
2023-10-19T22:25:36.140Z,29.87
2023-10-19T22:28:07.513Z,28.37
2023-10-19T22:30:35.662Z,27.93
2023-10-19T22:33:03.782Z,28.30
2023-10-19T22:35:34.075Z,29.93
2023-10-19T22:38:02.175Z,28.47
2023-10-19T22:40:30.293Z,26.70
2023-10-19T22:42:58.422Z,29.20
2023-10-19T22:45:27.767Z,27.27
2023-10-19T22:47:55.851Z,25.83
2023-10-19T22:50:26.102Z,24.97
2023-10-19T22:52:54.289Z,28.70
2023-10-19T22:55:22.626Z,26.30
2023-10-19T22:57:52.310Z,23.70
2023-10-19T23:00:21.076Z,23.77
2023-10-19T23:02:50.710Z,26.57
2023-10-19T23:05:19.184Z,26.67
2023-10-19T23:07:50.249Z,24.90
2023-10-19T23:10:20.497Z,24.33
2023-10-19T23:12:52.124Z,25.00
2023-10-19T23:15:27.359Z,23.60
2023-10-19T23:17:57.037Z,24.17
2023-10-19T23:20:29.091Z,23.67
2023-10-19T23:22:59.436Z,21.97
2023-10-19T23:25:29.504Z,22.63
2023-10-19T23:27:57.817Z,22.57
2023-10-19T23:30:26.005Z,22.33
2023-10-19T23:32:55.465Z,23.43
2023-10-19T23:35:25.097Z,21.70
2023-10-19T23:37:53.179Z,22.90
2023-10-19T23:40:21.980Z,22.23
2023-10-19T23:42:50.071Z,20.90
2023-10-19T23:45:18.201Z,21.73
2023-10-19T23:47:46.582Z,22.00
2023-10-19T23:50:14.981Z,19.97
2023-10-19T23:52:44.538Z,20.90
2023-10-19T23:55:14.505Z,20.23
2023-10-19T23:57:44.100Z,20.47
